sensor_id;sensor_type;location;lat;lon;timestamp;temperature;humidity
40952;DHT22;26682;51.660;19.338;2022-11-03T00:00:16;6.50;99.90
40952;DHT22;26682;51.660;19.338;2022-11-03T00:02:15;6.50;99.90
40952;DHT22;26682;51.660;19.338;2022-11-03T00:04:01;6.50;99.90
40952;DHT22;26682;51.660;19.338;2022-11-03T00:05:47;6.40;99.90
40952;DHT22;26682;51.660;19.338;2022-11-03T00:07:51;6.40;99.90
40952;DHT22;26682;51.660;19.338;2022-11-03T00:09:37;6.50;99.90
40952;DHT22;26682;51.660;19.338;2022-11-03T00:11:23;6.50;99.90
40952;DHT22;26682;51.660;19.338;2022-11-03T00:13:09;6.50;99.90
40952;DHT22;26682;51.660;19.338;2022-11-03T00:14:55;6.50;99.90
40952;DHT22;26682;51.660;19.338;2022-11-03T00:16:41;6.50;99.90
40952;DHT22;26682;51.660;19.338;2022-11-03T00:18:27;6.50;99.90
40952;DHT22;26682;51.660;19.338;2022-11-03T00:20:13;6.50;99.90
40952;DHT22;26682;51.660;19.338;2022-11-03T00:21:59;6.50;99.90
40952;DHT22;26682;51.660;19.338;2022-11-03T00:23:45;6.50;99.90
40952;DHT22;26682;51.660;19.338;2022-11-03T00:25:32;6.50;99.90
40952;DHT22;26682;51.660;19.338;2022-11-03T00:27:18;6.50;99.90
40952;DHT22;26682;51.660;19.338;2022-11-03T00:29:09;6.40;99.90
40952;DHT22;26682;51.660;19.338;2022-11-03T00:30:55;6.40;99.90
40952;DHT22;26682;51.660;19.338;2022-11-03T00:32:41;6.30;99.90
40952;DHT22;26682;51.660;19.338;2022-11-03T00:34:27;6.40;99.90
40952;DHT22;26682;51.660;19.338;2022-11-03T00:36:18;6.40;99.90
40952;DHT22;26682;51.660;19.338;2022-11-03T00:38:04;6.50;99.90
40952;DHT22;26682;51.660;19.338;2022-11-03T00:39:50;6.40;99.90
40952;DHT22;26682;51.660;19.338;2022-11-03T00:41:37;6.40;99.90
40952;DHT22;26682;51.660;19.338;2022-11-03T00:43:24;6.40;99.90
40952;DHT22;26682;51.660;19.338;2022-11-03T00:45:10;6.40;99.90
40952;DHT22;26682;51.660;19.338;2022-11-03T00:46:56;6.30;99.90
40952;DHT22;26682;51.660;19.338;2022-11-03T00:48:42;6.30;99.90
40952;DHT22;26682;51.660;19.338;2022-11-03T00:50:28;6.30;99.90
40952;DHT22;26682;51.660;19.338;2022-11-03T00:52:14;6.30;99.90
40952;DHT22;26682;51.660;19.338;2022-11-03T00:54:01;6.30;99.90
40952;DHT22;26682;51.660;19.338;2022-11-03T00:55:49;6.20;99.90
40952;DHT22;26682;51.660;19.338;2022-11-03T00:57:34;6.30;99.90
40952;DHT22;26682;51.660;19.338;2022-11-03T00:59:20;6.20;99.90
40952;DHT22;26682;51.660;19.338;2022-11-03T01:01:17;6.20;99.90
40952;DHT22;26682;51.660;19.338;2022-11-03T01:03:03;6.30;99.90
40952;DHT22;26682;51.660;19.338;2022-11-03T01:04:50;6.30;99.90
40952;DHT22;26682;51.660;19.338;2022-11-03T01:06:57;6.20;99.90
40952;DHT22;26682;51.660;19.338;2022-11-03T01:08:43;6.20;99.90
40952;DHT22;26682;51.660;19.338;2022-11-03T01:10:29;6.20;99.90
40952;DHT22;26682;51.660;19.338;2022-11-03T01:12:17;6.20;99.90
40952;DHT22;26682;51.660;19.338;2022-11-03T01:14:04;6.20;99.90
40952;DHT22;26682;51.660;19.338;2022-11-03T01:15:50;6.20;99.90
40952;DHT22;26682;51.660;19.338;2022-11-03T01:17:36;6.10;99.90
40952;DHT22;26682;51.660;19.338;2022-11-03T01:19:22;6.10;99.90
40952;DHT22;26682;51.660;19.338;2022-11-03T01:21:09;6.00;99.90
40952;DHT22;26682;51.660;19.338;2022-11-03T01:22:55;5.90;99.90
40952;DHT22;26682;51.660;19.338;2022-11-03T01:24:42;5.90;99.90
40952;DHT22;26682;51.660;19.338;2022-11-03T01:26:28;5.90;99.90
40952;DHT22;26682;51.660;19.338;2022-11-03T01:28:15;5.90;99.90
40952;DHT22;26682;51.660;19.338;2022-11-03T01:30:01;5.80;99.90
40952;DHT22;26682;51.660;19.338;2022-11-03T01:31:47;5.80;99.90
40952;DHT22;26682;51.660;19.338;2022-11-03T01:33:34;5.80;99.90
40952;DHT22;26682;51.660;19.338;2022-11-03T01:35:19;5.70;99.90
40952;DHT22;26682;51.660;19.338;2022-11-03T01:37:05;5.70;99.90
40952;DHT22;26682;51.660;19.338;2022-11-03T01:38:56;5.70;99.90
40952;DHT22;26682;51.660;19.338;2022-11-03T01:40:42;5.60;99.90
40952;DHT22;26682;51.660;19.338;2022-11-03T01:42:27;5.60;99.90
40952;DHT22;26682;51.660;19.338;2022-11-03T01:48:07;5.50;99.90
40952;DHT22;26682;51.660;19.338;2022-11-03T01:51:53;5.50;99.90
40952;DHT22;26682;51.660;19.338;2022-11-03T01:53:44;5.50;99.90
40952;DHT22;26682;51.660;19.338;2022-11-03T01:55:34;5.40;99.90
40952;DHT22;26682;51.660;19.338;2022-11-03T01:57:26;5.40;99.90
40952;DHT22;26682;51.660;19.338;2022-11-03T01:59:14;5.30;99.90
40952;DHT22;26682;51.660;19.338;2022-11-03T02:01:01;5.30;99.90
40952;DHT22;26682;51.660;19.338;2022-11-03T02:02:47;5.30;99.90
40952;DHT22;26682;51.660;19.338;2022-11-03T02:04:37;5.30;99.90
40952;DHT22;26682;51.660;19.338;2022-11-03T02:06:25;5.30;99.90
40952;DHT22;26682;51.660;19.338;2022-11-03T02:08:37;5.30;99.90
40952;DHT22;26682;51.660;19.338;2022-11-03T02:10:22;5.30;99.90
40952;DHT22;26682;51.660;19.338;2022-11-03T02:12:09;5.30;99.90
40952;DHT22;26682;51.660;19.338;2022-11-03T02:13:55;5.30;99.90
40952;DHT22;26682;51.660;19.338;2022-11-03T02:15:41;5.30;99.90
40952;DHT22;26682;51.660;19.338;2022-11-03T02:17:29;5.40;99.90
40952;DHT22;26682;51.660;19.338;2022-11-03T02:19:28;5.30;99.90
40952;DHT22;26682;51.660;19.338;2022-11-03T02:23:24;5.20;99.90
40952;DHT22;26682;51.660;19.338;2022-11-03T02:27:35;5.20;99.90
40952;DHT22;26682;51.660;19.338;2022-11-03T02:29:21;5.10;99.90
40952;DHT22;26682;51.660;19.338;2022-11-03T02:33:01;5.10;99.90
40952;DHT22;26682;51.660;19.338;2022-11-03T02:37:34;5.00;99.90
40952;DHT22;26682;51.660;19.338;2022-11-03T02:39:33;5.00;99.90
40952;DHT22;26682;51.660;19.338;2022-11-03T02:41:21;4.90;99.90
40952;DHT22;26682;51.660;19.338;2022-11-03T02:43:09;4.80;99.90
40952;DHT22;26682;51.660;19.338;2022-11-03T02:44:59;4.80;99.90
40952;DHT22;26682;51.660;19.338;2022-11-03T02:46:56;4.80;99.90
40952;DHT22;26682;51.660;19.338;2022-11-03T02:48:43;4.80;99.90
40952;DHT22;26682;51.660;19.338;2022-11-03T02:50:32;4.80;99.90
40952;DHT22;26682;51.660;19.338;2022-11-03T02:52:42;4.80;99.90
40952;DHT22;26682;51.660;19.338;2022-11-03T02:54:37;4.70;99.90
40952;DHT22;26682;51.660;19.338;2022-11-03T02:56:24;4.70;99.90
40952;DHT22;26682;51.660;19.338;2022-11-03T02:58:23;4.70;99.90
40952;DHT22;26682;51.660;19.338;2022-11-03T03:00:12;4.70;99.90
40952;DHT22;26682;51.660;19.338;2022-11-03T03:02:07;4.70;99.90
40952;DHT22;26682;51.660;19.338;2022-11-03T03:03:58;4.60;99.90
40952;DHT22;26682;51.660;19.338;2022-11-03T03:05:44;4.70;99.90
40952;DHT22;26682;51.660;19.338;2022-11-03T03:07:36;4.60;99.90
40952;DHT22;26682;51.660;19.338;2022-11-03T03:09:38;4.60;99.90
40952;DHT22;26682;51.660;19.338;2022-11-03T03:11:25;4.50;99.90
40952;DHT22;26682;51.660;19.338;2022-11-03T03:13:23;4.50;99.90
40952;DHT22;26682;51.660;19.338;2022-11-03T03:15:10;4.40;99.90
40952;DHT22;26682;51.660;19.338;2022-11-03T03:17:00;4.40;99.90
40952;DHT22;26682;51.660;19.338;2022-11-03T03:19:00;4.30;99.90
40952;DHT22;26682;51.660;19.338;2022-11-03T03:20:55;4.30;99.90
40952;DHT22;26682;51.660;19.338;2022-11-03T03:22:46;4.30;99.90
40952;DHT22;26682;51.660;19.338;2022-11-03T03:26:36;4.20;99.90
40952;DHT22;26682;51.660;19.338;2022-11-03T03:28:44;4.20;99.90
40952;DHT22;26682;51.660;19.338;2022-11-03T03:30:34;4.10;99.90
40952;DHT22;26682;51.660;19.338;2022-11-03T03:32:23;4.10;99.90
40952;DHT22;26682;51.660;19.338;2022-11-03T03:34:11;4.00;99.90
40952;DHT22;26682;51.660;19.338;2022-11-03T03:35:58;4.10;99.90
40952;DHT22;26682;51.660;19.338;2022-11-03T03:37:49;4.00;99.90
40952;DHT22;26682;51.660;19.338;2022-11-03T03:39:37;4.00;99.90
40952;DHT22;26682;51.660;19.338;2022-11-03T03:41:25;3.90;99.90
40952;DHT22;26682;51.660;19.338;2022-11-03T03:43:14;3.80;99.90
40952;DHT22;26682;51.660;19.338;2022-11-03T03:44:59;3.80;99.90
40952;DHT22;26682;51.660;19.338;2022-11-03T03:46:56;3.80;99.90
40952;DHT22;26682;51.660;19.338;2022-11-03T03:48:44;3.80;99.90
40952;DHT22;26682;51.660;19.338;2022-11-03T03:50:33;3.80;99.90
40952;DHT22;26682;51.660;19.338;2022-11-03T03:52:20;3.80;99.90
40952;DHT22;26682;51.660;19.338;2022-11-03T03:54:06;3.80;99.90
40952;DHT22;26682;51.660;19.338;2022-11-03T03:55:52;3.80;99.90
40952;DHT22;26682;51.660;19.338;2022-11-03T03:57:38;3.70;99.90
40952;DHT22;26682;51.660;19.338;2022-11-03T03:59:24;3.70;99.90
40952;DHT22;26682;51.660;19.338;2022-11-03T04:01:11;3.70;99.90
40952;DHT22;26682;51.660;19.338;2022-11-03T04:02:57;3.70;99.90
40952;DHT22;26682;51.660;19.338;2022-11-03T04:04:43;3.70;99.90
40952;DHT22;26682;51.660;19.338;2022-11-03T04:06:29;3.70;99.90
40952;DHT22;26682;51.660;19.338;2022-11-03T04:08:17;3.70;99.90
40952;DHT22;26682;51.660;19.338;2022-11-03T04:10:03;3.70;99.90
40952;DHT22;26682;51.660;19.338;2022-11-03T04:11:49;3.80;99.90
40952;DHT22;26682;51.660;19.338;2022-11-03T04:13:54;3.70;99.90
40952;DHT22;26682;51.660;19.338;2022-11-03T04:15:59;3.80;99.90
40952;DHT22;26682;51.660;19.338;2022-11-03T04:18:03;3.70;99.90
40952;DHT22;26682;51.660;19.338;2022-11-03T04:20:11;3.70;99.90
40952;DHT22;26682;51.660;19.338;2022-11-03T04:22:17;3.70;99.90
40952;DHT22;26682;51.660;19.338;2022-11-03T04:24:03;3.70;99.90
40952;DHT22;26682;51.660;19.338;2022-11-03T04:25:54;3.70;99.90
40952;DHT22;26682;51.660;19.338;2022-11-03T04:27:40;3.70;99.90
40952;DHT22;26682;51.660;19.338;2022-11-03T04:29:26;3.70;99.90
40952;DHT22;26682;51.660;19.338;2022-11-03T04:31:15;3.70;99.90
40952;DHT22;26682;51.660;19.338;2022-11-03T04:33:01;3.70;99.90
40952;DHT22;26682;51.660;19.338;2022-11-03T04:34:47;3.70;99.90
40952;DHT22;26682;51.660;19.338;2022-11-03T04:36:33;3.70;99.90
40952;DHT22;26682;51.660;19.338;2022-11-03T04:38:21;3.60;99.90
40952;DHT22;26682;51.660;19.338;2022-11-03T04:40:16;3.60;99.90
40952;DHT22;26682;51.660;19.338;2022-11-03T04:42:10;3.60;99.90
40952;DHT22;26682;51.660;19.338;2022-11-03T04:43:59;3.50;99.90
40952;DHT22;26682;51.660;19.338;2022-11-03T04:45:46;3.50;99.90
40952;DHT22;26682;51.660;19.338;2022-11-03T04:47:32;3.50;99.90
40952;DHT22;26682;51.660;19.338;2022-11-03T04:49:21;3.50;99.90
40952;DHT22;26682;51.660;19.338;2022-11-03T04:51:17;3.50;99.90
40952;DHT22;26682;51.660;19.338;2022-11-03T04:53:12;3.40;99.90
40952;DHT22;26682;51.660;19.338;2022-11-03T04:54:59;3.40;99.90
40952;DHT22;26682;51.660;19.338;2022-11-03T04:56:45;3.40;99.90
40952;DHT22;26682;51.660;19.338;2022-11-03T04:58:33;3.30;99.90
40952;DHT22;26682;51.660;19.338;2022-11-03T05:00:20;3.30;99.90
40952;DHT22;26682;51.660;19.338;2022-11-03T05:02:12;3.30;99.90
40952;DHT22;26682;51.660;19.338;2022-11-03T05:03:58;3.30;99.90
40952;DHT22;26682;51.660;19.338;2022-11-03T05:05:45;3.20;99.90
40952;DHT22;26682;51.660;19.338;2022-11-03T05:07:33;3.20;99.90
40952;DHT22;26682;51.660;19.338;2022-11-03T05:09:25;3.20;99.90
40952;DHT22;26682;51.660;19.338;2022-11-03T05:11:51;3.10;99.90
40952;DHT22;26682;51.660;19.338;2022-11-03T05:13:37;3.10;99.90
40952;DHT22;26682;51.660;19.338;2022-11-03T05:15:34;3.10;99.90
40952;DHT22;26682;51.660;19.338;2022-11-03T05:17:23;3.00;99.90
40952;DHT22;26682;51.660;19.338;2022-11-03T05:19:27;3.00;99.90
40952;DHT22;26682;51.660;19.338;2022-11-03T05:21:17;3.00;99.90
40952;DHT22;26682;51.660;19.338;2022-11-03T05:23:04;3.00;99.90
40952;DHT22;26682;51.660;19.338;2022-11-03T05:25:00;3.00;99.90
40952;DHT22;26682;51.660;19.338;2022-11-03T05:26:47;3.00;99.90
40952;DHT22;26682;51.660;19.338;2022-11-03T05:28:37;3.00;99.90
40952;DHT22;26682;51.660;19.338;2022-11-03T05:30:23;3.00;99.90
40952;DHT22;26682;51.660;19.338;2022-11-03T05:32:35;3.00;99.90
40952;DHT22;26682;51.660;19.338;2022-11-03T05:36:42;3.00;99.90
40952;DHT22;26682;51.660;19.338;2022-11-03T05:38:31;2.90;99.90
40952;DHT22;26682;51.660;19.338;2022-11-03T05:40:23;3.00;99.90
40952;DHT22;26682;51.660;19.338;2022-11-03T05:42:34;3.00;99.90
40952;DHT22;26682;51.660;19.338;2022-11-03T05:44:33;3.00;99.90
40952;DHT22;26682;51.660;19.338;2022-11-03T05:46:22;3.00;99.90
40952;DHT22;26682;51.660;19.338;2022-11-03T05:48:30;3.00;99.90
40952;DHT22;26682;51.660;19.338;2022-11-03T05:50:20;3.00;99.90
40952;DHT22;26682;51.660;19.338;2022-11-03T05:52:14;3.00;99.90
40952;DHT22;26682;51.660;19.338;2022-11-03T05:54:03;3.00;99.90
40952;DHT22;26682;51.660;19.338;2022-11-03T05:55:50;3.00;99.90
40952;DHT22;26682;51.660;19.338;2022-11-03T05:57:36;3.00;99.90
40952;DHT22;26682;51.660;19.338;2022-11-03T05:59:26;3.10;99.90
40952;DHT22;26682;51.660;19.338;2022-11-03T06:01:21;3.10;99.90
40952;DHT22;26682;51.660;19.338;2022-11-03T06:03:18;3.10;99.90
40952;DHT22;26682;51.660;19.338;2022-11-03T06:05:19;3.10;99.90
40952;DHT22;26682;51.660;19.338;2022-11-03T06:07:19;3.10;99.90
40952;DHT22;26682;51.660;19.338;2022-11-03T06:09:17;3.10;99.90
40952;DHT22;26682;51.660;19.338;2022-11-03T06:11:04;3.10;99.90
40952;DHT22;26682;51.660;19.338;2022-11-03T06:12:58;3.20;99.90
40952;DHT22;26682;51.660;19.338;2022-11-03T06:14:45;3.20;99.90
40952;DHT22;26682;51.660;19.338;2022-11-03T06:16:39;3.30;99.90
40952;DHT22;26682;51.660;19.338;2022-11-03T06:18:30;3.30;99.90
40952;DHT22;26682;51.660;19.338;2022-11-03T06:20:19;3.40;99.90
40952;DHT22;26682;51.660;19.338;2022-11-03T06:24:10;3.50;99.90
40952;DHT22;26682;51.660;19.338;2022-11-03T06:25:58;3.50;99.90
40952;DHT22;26682;51.660;19.338;2022-11-03T06:27:47;3.60;99.90
40952;DHT22;26682;51.660;19.338;2022-11-03T06:29:33;3.60;99.90
40952;DHT22;26682;51.660;19.338;2022-11-03T06:31:23;3.70;99.90
40952;DHT22;26682;51.660;19.338;2022-11-03T06:33:26;3.80;99.90
40952;DHT22;26682;51.660;19.338;2022-11-03T06:35:13;3.90;99.90
40952;DHT22;26682;51.660;19.338;2022-11-03T06:37:09;4.00;99.90
40952;DHT22;26682;51.660;19.338;2022-11-03T06:39:07;4.00;99.90
40952;DHT22;26682;51.660;19.338;2022-11-03T06:40:54;4.10;99.90
40952;DHT22;26682;51.660;19.338;2022-11-03T06:42:42;4.20;99.90
40952;DHT22;26682;51.660;19.338;2022-11-03T06:44:28;4.30;99.90
40952;DHT22;26682;51.660;19.338;2022-11-03T06:46:20;4.30;99.90
40952;DHT22;26682;51.660;19.338;2022-11-03T06:48:10;4.40;99.90
40952;DHT22;26682;51.660;19.338;2022-11-03T06:50:01;4.50;99.90
40952;DHT22;26682;51.660;19.338;2022-11-03T06:51:48;4.60;99.90
40952;DHT22;26682;51.660;19.338;2022-11-03T06:53:34;4.70;99.90
40952;DHT22;26682;51.660;19.338;2022-11-03T06:55:29;4.80;99.90
40952;DHT22;26682;51.660;19.338;2022-11-03T06:57:17;4.90;99.90
40952;DHT22;26682;51.660;19.338;2022-11-03T06:59:08;5.00;99.90
40952;DHT22;26682;51.660;19.338;2022-11-03T07:01:01;5.10;99.90
40952;DHT22;26682;51.660;19.338;2022-11-03T07:04:57;5.30;99.90
40952;DHT22;26682;51.660;19.338;2022-11-03T07:06:45;5.50;99.90
40952;DHT22;26682;51.660;19.338;2022-11-03T07:08:38;5.70;99.90
40952;DHT22;26682;51.660;19.338;2022-11-03T07:10:31;5.70;99.90
40952;DHT22;26682;51.660;19.338;2022-11-03T07:12:18;5.80;99.90
40952;DHT22;26682;51.660;19.338;2022-11-03T07:14:14;5.80;99.90
40952;DHT22;26682;51.660;19.338;2022-11-03T07:16:02;5.90;99.90
40952;DHT22;26682;51.660;19.338;2022-11-03T07:17:48;6.00;99.90
40952;DHT22;26682;51.660;19.338;2022-11-03T07:19:36;6.10;99.90
40952;DHT22;26682;51.660;19.338;2022-11-03T07:21:38;6.10;99.90
40952;DHT22;26682;51.660;19.338;2022-11-03T07:23:28;6.20;99.90
40952;DHT22;26682;51.660;19.338;2022-11-03T07:25:18;6.30;99.90
40952;DHT22;26682;51.660;19.338;2022-11-03T07:27:26;6.30;99.90
40952;DHT22;26682;51.660;19.338;2022-11-03T07:29:21;6.40;99.90
40952;DHT22;26682;51.660;19.338;2022-11-03T07:31:22;6.50;99.90
40952;DHT22;26682;51.660;19.338;2022-11-03T07:33:22;6.60;99.90
40952;DHT22;26682;51.660;19.338;2022-11-03T07:37:19;6.70;99.90
40952;DHT22;26682;51.660;19.338;2022-11-03T07:39:12;6.90;99.90
40952;DHT22;26682;51.660;19.338;2022-11-03T07:41:00;7.00;99.90
40952;DHT22;26682;51.660;19.338;2022-11-03T07:42:46;7.10;99.90
40952;DHT22;26682;51.660;19.338;2022-11-03T07:44:33;7.20;99.90
40952;DHT22;26682;51.660;19.338;2022-11-03T07:46:23;7.30;99.90
40952;DHT22;26682;51.660;19.338;2022-11-03T07:48:47;7.40;99.90
40952;DHT22;26682;51.660;19.338;2022-11-03T07:50:33;7.40;99.90
40952;DHT22;26682;51.660;19.338;2022-11-03T07:52:23;7.50;99.90
40952;DHT22;26682;51.660;19.338;2022-11-03T07:54:24;7.60;99.90
40952;DHT22;26682;51.660;19.338;2022-11-03T07:56:26;7.80;99.90
40952;DHT22;26682;51.660;19.338;2022-11-03T07:58:24;7.90;99.90
40952;DHT22;26682;51.660;19.338;2022-11-03T08:00:14;7.90;99.90
40952;DHT22;26682;51.660;19.338;2022-11-03T08:04:46;8.10;99.90
40952;DHT22;26682;51.660;19.338;2022-11-03T08:06:32;8.30;99.90
40952;DHT22;26682;51.660;19.338;2022-11-03T08:08:18;8.30;99.90
40952;DHT22;26682;51.660;19.338;2022-11-03T08:10:04;8.30;99.90
40952;DHT22;26682;51.660;19.338;2022-11-03T08:11:52;8.40;99.90
40952;DHT22;26682;51.660;19.338;2022-11-03T08:13:38;8.50;99.90
40952;DHT22;26682;51.660;19.338;2022-11-03T08:15:24;8.50;99.90
40952;DHT22;26682;51.660;19.338;2022-11-03T08:17:09;8.60;99.90
40952;DHT22;26682;51.660;19.338;2022-11-03T08:18:56;8.60;99.90
40952;DHT22;26682;51.660;19.338;2022-11-03T08:20:42;8.70;99.90
40952;DHT22;26682;51.660;19.338;2022-11-03T08:22:28;8.70;99.90
40952;DHT22;26682;51.660;19.338;2022-11-03T08:24:14;8.70;99.90
40952;DHT22;26682;51.660;19.338;2022-11-03T08:26:00;8.70;99.90
40952;DHT22;26682;51.660;19.338;2022-11-03T08:27:47;8.80;99.90
40952;DHT22;26682;51.660;19.338;2022-11-03T08:29:33;8.80;99.90
40952;DHT22;26682;51.660;19.338;2022-11-03T08:31:19;8.80;99.90
40952;DHT22;26682;51.660;19.338;2022-11-03T08:33:05;8.90;99.90
40952;DHT22;26682;51.660;19.338;2022-11-03T08:34:51;8.90;99.90
40952;DHT22;26682;51.660;19.338;2022-11-03T08:36:37;8.90;99.90
40952;DHT22;26682;51.660;19.338;2022-11-03T08:38:23;9.00;99.90
40952;DHT22;26682;51.660;19.338;2022-11-03T08:40:10;9.00;99.90
40952;DHT22;26682;51.660;19.338;2022-11-03T08:41:56;9.00;99.90
40952;DHT22;26682;51.660;19.338;2022-11-03T08:43:42;9.10;99.90
40952;DHT22;26682;51.660;19.338;2022-11-03T08:45:28;9.10;99.90
40952;DHT22;26682;51.660;19.338;2022-11-03T08:47:15;9.10;99.90
40952;DHT22;26682;51.660;19.338;2022-11-03T08:49:01;9.10;99.90
40952;DHT22;26682;51.660;19.338;2022-11-03T08:50:48;9.20;99.90
40952;DHT22;26682;51.660;19.338;2022-11-03T08:52:39;9.20;99.90
40952;DHT22;26682;51.660;19.338;2022-11-03T08:54:25;9.20;99.90
40952;DHT22;26682;51.660;19.338;2022-11-03T08:56:12;9.20;99.90
40952;DHT22;26682;51.660;19.338;2022-11-03T08:57:58;9.30;99.90
40952;DHT22;26682;51.660;19.338;2022-11-03T08:59:44;9.40;99.90
40952;DHT22;26682;51.660;19.338;2022-11-03T09:01:30;9.40;99.90
40952;DHT22;26682;51.660;19.338;2022-11-03T09:03:16;9.40;99.90
40952;DHT22;26682;51.660;19.338;2022-11-03T09:05:03;9.50;99.90
40952;DHT22;26682;51.660;19.338;2022-11-03T09:06:50;9.40;99.90
40952;DHT22;26682;51.660;19.338;2022-11-03T09:08:36;9.50;99.90
40952;DHT22;26682;51.660;19.338;2022-11-03T09:10:23;9.50;99.90
40952;DHT22;26682;51.660;19.338;2022-11-03T09:12:09;9.50;99.90
40952;DHT22;26682;51.660;19.338;2022-11-03T09:13:55;9.60;99.90
40952;DHT22;26682;51.660;19.338;2022-11-03T09:15:42;9.70;99.90
40952;DHT22;26682;51.660;19.338;2022-11-03T09:17:29;9.70;99.90
40952;DHT22;26682;51.660;19.338;2022-11-03T09:19:15;9.80;99.90
40952;DHT22;26682;51.660;19.338;2022-11-03T09:21:01;9.90;99.90
40952;DHT22;26682;51.660;19.338;2022-11-03T09:22:48;10.00;99.90
40952;DHT22;26682;51.660;19.338;2022-11-03T09:24:34;10.00;99.90
40952;DHT22;26682;51.660;19.338;2022-11-03T09:26:20;10.10;99.90
40952;DHT22;26682;51.660;19.338;2022-11-03T09:28:06;10.10;99.90
40952;DHT22;26682;51.660;19.338;2022-11-03T09:29:53;10.20;99.90
40952;DHT22;26682;51.660;19.338;2022-11-03T09:31:38;10.20;99.90
40952;DHT22;26682;51.660;19.338;2022-11-03T09:33:25;10.30;99.90
40952;DHT22;26682;51.660;19.338;2022-11-03T09:35:11;10.40;99.90
40952;DHT22;26682;51.660;19.338;2022-11-03T09:36:59;10.30;99.90
40952;DHT22;26682;51.660;19.338;2022-11-03T09:38:45;10.30;99.90
40952;DHT22;26682;51.660;19.338;2022-11-03T09:40:31;10.40;99.90
40952;DHT22;26682;51.660;19.338;2022-11-03T09:42:17;10.40;99.90
40952;DHT22;26682;51.660;19.338;2022-11-03T09:44:04;10.40;99.90
40952;DHT22;26682;51.660;19.338;2022-11-03T09:45:50;10.40;99.90
40952;DHT22;26682;51.660;19.338;2022-11-03T09:47:39;10.40;99.90
40952;DHT22;26682;51.660;19.338;2022-11-03T09:49:27;10.50;99.90
40952;DHT22;26682;51.660;19.338;2022-11-03T09:51:19;10.50;99.90
40952;DHT22;26682;51.660;19.338;2022-11-03T09:53:11;10.50;99.90
40952;DHT22;26682;51.660;19.338;2022-11-03T09:54:57;10.60;99.90
40952;DHT22;26682;51.660;19.338;2022-11-03T09:56:44;10.60;99.90
40952;DHT22;26682;51.660;19.338;2022-11-03T09:58:32;10.60;99.90
40952;DHT22;26682;51.660;19.338;2022-11-03T10:00:20;10.70;99.90
40952;DHT22;26682;51.660;19.338;2022-11-03T10:04:04;10.70;99.90
40952;DHT22;26682;51.660;19.338;2022-11-03T10:05:50;10.70;99.90
40952;DHT22;26682;51.660;19.338;2022-11-03T10:07:36;10.80;99.90
40952;DHT22;26682;51.660;19.338;2022-11-03T10:09:22;10.90;99.90
40952;DHT22;26682;51.660;19.338;2022-11-03T10:11:09;10.90;99.90
40952;DHT22;26682;51.660;19.338;2022-11-03T10:12:56;11.00;99.90
40952;DHT22;26682;51.660;19.338;2022-11-03T10:14:43;11.00;99.90
40952;DHT22;26682;51.660;19.338;2022-11-03T10:16:31;11.00;99.90
40952;DHT22;26682;51.660;19.338;2022-11-03T10:18:16;11.10;99.90
40952;DHT22;26682;51.660;19.338;2022-11-03T10:20:05;11.20;99.90
40952;DHT22;26682;51.660;19.338;2022-11-03T10:21:52;11.30;99.90
40952;DHT22;26682;51.660;19.338;2022-11-03T10:23:37;11.40;99.90
40952;DHT22;26682;51.660;19.338;2022-11-03T10:25:29;11.50;99.90
40952;DHT22;26682;51.660;19.338;2022-11-03T10:27:25;11.50;99.90
40952;DHT22;26682;51.660;19.338;2022-11-03T10:29:22;11.60;99.90
40952;DHT22;26682;51.660;19.338;2022-11-03T10:31:19;11.50;99.90
40952;DHT22;26682;51.660;19.338;2022-11-03T10:33:36;11.50;99.90
40952;DHT22;26682;51.660;19.338;2022-11-03T10:35:35;11.40;99.90
40952;DHT22;26682;51.660;19.338;2022-11-03T10:37:25;11.50;99.90
40952;DHT22;26682;51.660;19.338;2022-11-03T10:39:31;11.50;99.90
40952;DHT22;26682;51.660;19.338;2022-11-03T10:41:25;11.60;99.90
40952;DHT22;26682;51.660;19.338;2022-11-03T10:43:11;11.60;99.90
40952;DHT22;26682;51.660;19.338;2022-11-03T10:45:18;11.70;99.90
40952;DHT22;26682;51.660;19.338;2022-11-03T10:47:04;11.80;99.90
40952;DHT22;26682;51.660;19.338;2022-11-03T10:50:55;11.90;99.90
40952;DHT22;26682;51.660;19.338;2022-11-03T10:52:41;11.90;99.90
40952;DHT22;26682;51.660;19.338;2022-11-03T10:54:27;11.90;99.90
40952;DHT22;26682;51.660;19.338;2022-11-03T10:56:14;11.90;99.90
40952;DHT22;26682;51.660;19.338;2022-11-03T10:58:00;12.00;99.90
40952;DHT22;26682;51.660;19.338;2022-11-03T10:59:48;12.00;99.90
40952;DHT22;26682;51.660;19.338;2022-11-03T11:01:35;12.00;99.90
40952;DHT22;26682;51.660;19.338;2022-11-03T11:03:21;12.00;99.90
40952;DHT22;26682;51.660;19.338;2022-11-03T11:05:34;12.00;99.90
40952;DHT22;26682;51.660;19.338;2022-11-03T11:07:23;12.00;99.90
40952;DHT22;26682;51.660;19.338;2022-11-03T11:09:21;12.10;99.90
40952;DHT22;26682;51.660;19.338;2022-11-03T11:11:07;12.20;99.90
40952;DHT22;26682;51.660;19.338;2022-11-03T11:17:41;12.20;99.90
40952;DHT22;26682;51.660;19.338;2022-11-03T11:19:28;12.30;99.90
40952;DHT22;26682;51.660;19.338;2022-11-03T11:26:16;12.50;99.90
40952;DHT22;26682;51.660;19.338;2022-11-03T11:27:54;12.60;99.90
40952;DHT22;26682;51.660;19.338;2022-11-03T11:29:41;12.60;99.90
40952;DHT22;26682;51.660;19.338;2022-11-03T11:31:32;12.70;99.90
40952;DHT22;26682;51.660;19.338;2022-11-03T11:33:23;12.70;99.90
40952;DHT22;26682;51.660;19.338;2022-11-03T11:35:15;12.70;99.90
40952;DHT22;26682;51.660;19.338;2022-11-03T11:40:48;12.70;99.90
40952;DHT22;26682;51.660;19.338;2022-11-03T11:46:39;12.60;99.90
40952;DHT22;26682;51.660;19.338;2022-11-03T11:48:26;12.60;99.90
40952;DHT22;26682;51.660;19.338;2022-11-03T11:50:25;12.60;99.90
40952;DHT22;26682;51.660;19.338;2022-11-03T11:52:14;12.60;99.90
40952;DHT22;26682;51.660;19.338;2022-11-03T11:54:05;12.60;99.90
40952;DHT22;26682;51.660;19.338;2022-11-03T11:55:56;12.50;99.90
40952;DHT22;26682;51.660;19.338;2022-11-03T11:57:43;12.50;99.90
40952;DHT22;26682;51.660;19.338;2022-11-03T11:59:30;12.50;99.90
40952;DHT22;26682;51.660;19.338;2022-11-03T12:03:13;12.50;99.90
40952;DHT22;26682;51.660;19.338;2022-11-03T12:05:00;12.40;99.90
40952;DHT22;26682;51.660;19.338;2022-11-03T12:06:48;12.50;99.90
40952;DHT22;26682;51.660;19.338;2022-11-03T12:08:34;12.50;99.90
40952;DHT22;26682;51.660;19.338;2022-11-03T12:10:25;12.50;99.90
40952;DHT22;26682;51.660;19.338;2022-11-03T12:12:11;12.60;99.90
40952;DHT22;26682;51.660;19.338;2022-11-03T12:14:24;12.60;99.90
40952;DHT22;26682;51.660;19.338;2022-11-03T12:16:46;12.50;99.90
40952;DHT22;26682;51.660;19.338;2022-11-03T12:18:40;12.50;99.90
40952;DHT22;26682;51.660;19.338;2022-11-03T12:20:45;12.40;99.90
40952;DHT22;26682;51.660;19.338;2022-11-03T12:22:39;12.40;99.90
40952;DHT22;26682;51.660;19.338;2022-11-03T12:24:26;12.50;99.90